St. George, Utah Weather observations

Data are for observation ending at time listed.
 Day   Time    Ave.   Ave.  Ave.  Vector   Max.   Stn.    Total    Solar   Ave.  
  of    of     Air    Rel.  Wind   Wind    Wind   Baro.  Precip.   Rad.    Soil  
Year   Day     Temp.  Hum.  Speed  Dir.    Gust   Pres.                    Temp. 
2014   (MST)    F      %     mph   deg.    mph     mb.     in.     W/m2     F   
------------------------------------------------------------------------------
 212   17:20  101.8    13    5.5   233     13.4   915.4    0.00     476    92.9
 212   17:30  102.5    13    4.5   252     12.6   915.4    0.00     475    92.8
 212   17:40  101.8    13    6.9   231     14.2   915.4    0.00     346    92.8
 212   17:50  101.6    13    3.9   249     10.4   915.3    0.00     281    92.7
 212   18:00  100.6    14    5.0   240      9.9   915.2    0.00     118    92.6
 212   18:10  100.0    14    6.1   230     11.7   915.1    0.00      62    92.5
 212   18:20   99.7    14    6.2   216     13.7   915.1    0.00      44    92.4
 212   18:30   99.4    14    5.6   209     11.5   915.2    0.00      31    92.4
 212   18:40   99.2    14    4.8   200      9.6   915.3    0.00      25    92.4
 212   18:50   98.6    15    3.9   174     10.0   915.5    0.00      22    92.2
 212   19:00   95.3    20    3.9   107      9.8   915.7    0.00      18    92.1
 212   19:10   92.8    23    4.8    67     17.0   915.7    0.00      13    92.0
 212   19:20   92.5    22    5.3    65     12.3   915.9    0.00       9    91.9
 212   19:30   92.6    22    3.5    84     10.3   916.0    0.00       5    91.9
 212   19:40   92.3    22    3.3    96      8.4   916.1    0.00       3    91.8
 212   19:50   92.1    22    2.8    69     10.6   916.5    0.00       3    91.7
 212   20:00   92.2    22    2.1   215      5.0   917.0    0.00       2    91.5
 212   20:10   92.4    22    3.6   178      6.9   917.1    0.00       0    91.4
 212   20:20   92.0    22    2.7   140      6.9   917.4    0.00       0    91.3
 212   20:30   90.5    25    1.3   125      3.9   917.7    0.00       0    91.2
 212   20:40   90.0    26    2.6   205      6.3   918.3    0.00       0    91.1
 212   20:50   89.5    28    2.7   101      7.4   918.1    0.00       0    91.0
 212   21:00   87.4    34    2.5   274      6.1   918.3    0.00       0    90.9
 212   21:10   86.6    39    2.9   227      5.9   918.8    0.00       0    90.8
 212   21:20   86.1    40    0.5   180      2.0   919.0    0.00       0    90.7
 212   21:30   85.5    41    1.4    72      4.4   919.1    0.00       0    90.6
 212   21:40   85.3    40    1.2    72      3.7   919.4    0.00       0    90.4
 212   21:50   86.2    34    1.2    54      3.3   919.7    0.00       0    90.3
 212   22:00   86.2    34    1.6   128      4.4   919.9    0.00       0    90.2
 212   22:10   84.7    35    3.3    79      8.8   920.0    0.00       0    90.1
 212   22:20   84.3    33    3.2    68     11.8   919.8    0.00       1    90.0
 212   22:30   84.2    32    4.0    61     10.6   919.8    0.00       0    89.9
 212   22:40   84.2    32    4.6    74     14.7   919.7    0.00       0    89.7
 212   22:50   84.2    32    3.8    86     13.4   919.8    0.00       0    89.6
 212   23:00   83.4    32    4.6    72     11.5   919.9    0.00       0    89.5
 212   23:10   82.8    34    4.1    54     10.1   919.9    0.00       0    89.4
 212   23:20   82.3    35    4.9    58     13.1   919.8    0.00       0    89.3
 212   23:30   82.2    35    3.0    69     11.2   920.1    0.00       0    89.2
 212   23:40   81.5    37    2.0   102      6.4   920.4    0.00       0    89.0
 212   23:50   81.2    37    1.8    32      3.0   920.5    0.00       0    88.9
 213    0:00   81.4    36    2.1    17      5.7   920.6    0.00       0    88.8
 213    0:10   81.9    35    2.6    41      5.0   920.5    0.00       1    88.7
 213    0:20   82.0    34    2.1    73      4.8   920.4    0.00       0    88.6
 213    0:30   82.5    33    3.1    39      8.4   920.3    0.00       0    88.4
 213    0:40   82.7    33    1.8    49      5.4   920.4    0.00       0    88.3
 213    0:50   82.5    33    1.8    71      7.9   920.5    0.00       0    88.2
 213    1:00   82.3    34    1.8    57      4.9   920.5    0.00       0    88.1
 213    1:10   81.9    34    1.7    76      3.6   920.6    0.00       0    88.0
 213    1:20   81.5    36    1.8    58      5.3   920.6    0.00       0    87.9
 213    1:30   81.1    37    2.4    54      6.0   920.5    0.00       0    87.8
 213    1:40   81.1    37    2.6    60      6.3   920.5    0.00       0    87.7
 213    1:50   80.9    37    1.6    79      5.4   920.6    0.00       0    87.6
 213    2:00   80.6    37    1.9    73      8.1   920.6    0.00       0    87.5
 213    2:10   80.5    37    1.8    74      4.1   920.5    0.00       0    87.4
 213    2:20   80.4    38    1.4    70      6.0   920.5    0.00       0    87.3
 213    2:30   80.2    38    2.0    95      5.6   920.4    0.00       0    87.2
 213    2:40   79.9    39    2.4    59      6.5   920.4    0.00       0    87.1
 213    2:50   79.7    39    1.7    74      6.7   920.5    0.00       0    87.0
 213    3:00   79.6    39    2.7    62      7.0   920.5    0.00       0    86.9
 213    3:10   79.2    40    2.7    90      5.7   920.5    0.00       0    86.8
 213    3:20   79.1    40    2.1    98      6.2   920.5    0.00       0    86.7
 213    3:30   78.9    41    1.3    62      4.5   920.7    0.00       0    86.7
 213    3:40   78.5    42    0.8   104      3.0   920.6    0.00       0    86.6
 213    3:50   78.2    44    1.1    40      2.9   920.7    0.00       0    86.5
 213    4:00   78.3    43    1.7    59      6.1   920.7    0.00       1    86.4
 213    4:10   78.3    44    1.6    86      4.1   920.7    0.00       0    86.3
 213    4:20   77.8    45    1.5   118      3.7   920.7    0.00       0    86.2
 213    4:30   77.5    46    1.6    57      3.4   920.8    0.00       0    86.1
 213    4:40   77.3    46    1.7    46      5.0   920.7    0.00       0    86.1
 213    4:50   77.2    46    1.8    52      6.2   920.8    0.00       0    86.0
 213    5:00   76.8    47    0.6    49      3.1   920.8    0.00       0    85.9
 213    5:10   76.7    47    0.6   274      2.6   920.9    0.00       0    85.7
 213    5:20   76.9    47    1.0   235      2.2   921.1    0.00       0    85.7
 213    5:30   76.8    47    0.2   215      0.9   921.2    0.00       2    85.6
 213    5:40   76.2    51    0.2   360      1.1   921.2    0.00       3    85.5
 213    5:50   75.8    51    0.4   113      1.3   921.4    0.00       6    85.5
 213    6:00   75.7    52    0.3   197      1.6   921.5    0.00      14    85.4
 213    6:10   75.5    51    0.5    61      3.3   921.6    0.00      19    85.3
 213    6:20   75.7    50    0.5    58      2.0   921.6    0.00      27    85.2
 213    6:30   76.2    49    1.0    52      2.7   921.7    0.00      37    85.2
 213    6:40   76.9    47    1.4    54      4.0   921.7    0.00      83    85.1
 213    6:50   77.3    46    1.2    40      3.1   921.8    0.00     123    85.0
 213    7:00   77.6    45    1.7    53      4.3   921.8    0.00     150    84.9
 213    7:10   77.8    44    2.1    51      5.3   921.8    0.00     177    84.8
 213    7:20   78.7    42    2.4    59      5.6   921.9    0.00     206    84.8
 213    7:30   79.1    42    1.8    68      4.7   922.0    0.00     236    84.7
 213    7:40   79.1    42    2.4    57      5.5   922.0    0.00     268    84.7
 213    7:50   79.9    40    1.8    56      5.0   922.0    0.00     302    84.6
 213    8:00   81.0    39    2.3    54      7.0   922.0    0.00     332    84.5
 213    8:10   81.4    38    3.2    55      7.0   922.1    0.00     365    84.4
 213    8:20   82.2    37    2.4    70      6.2   922.1    0.00     399    84.4
 213    8:30   83.2    35    1.7    89      4.7   922.1    0.00     428    84.4
 213    8:40   84.2    34    1.6    88      3.6   922.0    0.00     455    84.3
 213    8:50   84.8    33    1.2    46      3.5   922.0    0.00     484    84.3
 213    9:00   85.4    32    1.6    88      4.9   922.0    0.00     515    84.3
 213    9:10   85.8    32    1.2   155      4.4   921.9    0.00     542    84.3
 213    9:20   85.4    32    1.5   303      3.3   921.8    0.00     570    84.3
 213    9:30   86.5    31    1.1   239      2.8   921.7    0.00     599    84.3
 213    9:40   86.9    30    1.5   150      6.4   921.7    0.00     625    84.4
 213    9:50   86.3    31    1.6   340      4.3   921.7    0.00     651    84.5
 213   10:00   87.0    30    0.9   241      3.0   921.6    0.00     675    84.6
 213   10:10   87.7    29    1.4    89      5.0   921.5    0.00     698    84.7
 213   10:20   88.0    29    1.3    42      2.8   921.4    0.00     720    84.8
 213   10:30   88.6    28    1.6   180      5.2   921.3    0.00     741    84.8
 213   10:40   88.8    28    2.7   195      7.9   921.2    0.00     762    85.0
 213   10:50   90.4    27    1.1   148      5.0   921.2    0.00     780    85.1
 213   11:00   91.1    26    0.7   270      2.8   921.1    0.00     798    85.3
 213   11:10   92.1    25    0.6   305      3.7   920.9    0.00     814    85.4
 213   11:20   92.5    25    0.7   149      3.8   920.8    0.00     829    85.6
 213   11:30   92.5    26    1.3    84      5.7   920.7    0.00     843    85.8
 213   11:40   92.5    26    1.8   228      6.6   920.6    0.00     855    86.0
 213   11:50   92.7    24    2.7   198      6.3   920.5    0.00     864    86.3
 213   12:00   93.0    24    2.9   204      8.1   920.4    0.00     875    86.5
 213   12:10   94.2    24    1.1   241      5.2   920.3    0.00     879    86.7
 213   12:20   95.1    23    1.4   226      4.8   920.1    0.00     889    87.0
 213   12:30   95.6    24    1.1   137      5.0   920.0    0.00     893    87.2
 213   12:40   95.7    23    0.8    30      4.7   919.8    0.00     895    87.5
 213   12:50   95.9    23    1.4     1      8.8   919.6    0.00     896    87.7
 213   13:00   96.1    23    4.3   187     10.1   919.3    0.00     899    88.0
 213   13:10   97.4    21    0.8   290      4.4   919.1    0.00     896    88.3
 213   13:20   97.2    21    4.3   204      9.2   918.9    0.00     895    88.5
 213   13:30   97.5    21    2.3   195      8.6   918.6    0.00     891    88.8
 213   13:40   98.8    20    0.8   306      4.5   918.4    0.00     885    89.1
 213   13:50   99.2    20    1.3   217      6.4   918.1    0.00     874    89.4
 213   14:00   99.0    20    1.5   207      6.9   917.8    0.00     873    89.7
 213   14:10  100.2    18    4.1   233      9.1   917.8    0.00     863    89.9
 213   14:20   99.6    19    1.1   192      6.6   917.5    0.00     856    90.1
 213   14:30  100.4    18    5.4   200     13.9   917.3    0.00     840    90.5
 213   14:40  100.1    18    5.1   226     14.7   917.2    0.00     834    90.8
 213   14:50  100.6    18    4.5   208     12.6   917.1    0.00     839    91.1
 213   15:00  101.2    17    4.4   234     13.6   917.2    0.00     753    91.3
 213   15:10  101.3    17    3.2   211     11.6   917.1    0.00     759    91.6
 213   15:20  100.4    17    4.6   221     12.4   917.1    0.00     680    91.8
 213   15:30  101.3    17    2.6   174     12.1   917.1    0.00     863    92.0
 213   15:40   99.8    20    4.4   116     14.8   917.2    0.00     841    92.1
 213   15:50   98.9    20    3.5    60     10.7   916.9    0.00     622    92.3
 213   16:00   96.7    21    5.3    32     14.3   916.7    0.00     242    92.4
 213   16:10   97.0    22    4.5    24     11.8   916.5    0.00     386    92.5
 213   16:20   96.8    21    4.2    24      9.1   916.3    0.00     417    92.6
 213   16:30   97.7    20    3.2    35      7.0   916.2    0.00     500    92.6
 213   16:40   98.5    20    2.9    50      6.6   916.3    0.00     528    92.6
 213   16:50   97.8    20    2.1    77      6.9   916.4    0.00     152    92.7
 213   17:00   97.9    20    1.9    86      5.4   916.3    0.00     417    92.7
 213   17:10   98.3    20    2.2    92      6.4   916.3    0.00     254    92.8

Return to St. George, Utah graphs page.


Western Regional Climate Center,wrcc@dri.edu